Time;durP1;ratioP1;P1;durP2;ratioP2;P2;SDS_P1;SDS_P2;PMS_P1;PMS_P2;Temp;Humidity;BMP_temperature;BMP_pressure;BME280_temperature;BME280_humidity;BME280_pressure;Samples;Min_cycle;Max_cycle;Signal;HPM_P1;HPM_P2
2023/04/28 00:00:35;;;;;;;10.48;7.75;;;;;;;11.87;73.65;100530.84;4975685;28;20050;-76
2023/04/28 00:03:02;;;;;;;12.77;8.52;;;;;;;11.89;73.91;100533.31;4975961;28;20129;-78
2023/04/28 00:05:29;;;;;;;15.75;8.02;;;;;;;11.81;74.11;100521.06;4976099;28;20055;-77
2023/04/28 00:07:57;;;;;;;10.25;7.18;;;;;;;11.86;74.33;100517.91;4976025;28;20461;-79
2023/04/28 00:10:24;;;;;;;10.43;7.30;;;;;;;11.93;74.82;100517.09;4975568;28;20155;-75
2023/04/28 00:12:50;;;;;;;13.38;7.32;;;;;;;11.84;74.96;100520.69;4975226;28;20077;-76
2023/04/28 00:15:17;;;;;;;13.85;7.80;;;;;;;11.81;75.57;100525.50;4975318;28;20078;-76
2023/04/28 00:17:44;;;;;;;12.27;8.32;;;;;;;11.87;76.30;100522.16;4974811;28;20078;-75
2023/04/28 00:20:11;;;;;;;14.32;8.55;;;;;;;11.79;75.66;100503.88;4975217;28;20125;-74
2023/04/28 00:22:38;;;;;;;10.60;7.60;;;;;;;11.72;76.22;100498.44;4975716;28;20559;-75
2023/04/28 00:25:08;;;;;;;11.32;7.85;;;;;;;11.70;76.02;100489.09;4975259;28;20086;-75
2023/04/28 00:27:35;;;;;;;13.68;7.60;;;;;;;11.66;76.13;100482.56;4975309;28;20480;-76
2023/04/28 00:30:02;;;;;;;12.35;7.88;;;;;;;11.71;75.86;100475.00;4975223;28;20078;-75
2023/04/28 00:32:29;;;;;;;12.70;7.80;;;;;;;11.73;75.54;100467.78;4975255;28;20054;-75
2023/04/28 00:34:57;;;;;;;11.75;7.70;;;;;;;11.64;75.90;100467.81;4975107;28;20476;-74
2023/04/28 00:37:24;;;;;;;12.65;8.27;;;;;;;11.62;76.51;100474.19;4966452;28;20074;-75
2023/04/28 00:39:55;;;;;;;14.18;8.10;;;;;;;11.61;76.64;100468.13;4974676;28;20580;-75
2023/04/28 00:42:23;;;;;;;11.50;8.25;;;;;;;11.65;77.00;100473.88;4975460;28;20054;-77
2023/04/28 00:44:50;;;;;;;11.55;8.27;;;;;;;11.62;77.43;100458.47;4975360;28;20146;-76
2023/04/28 00:47:19;;;;;;;13.02;8.10;;;;;;;11.62;77.14;100463.72;4975125;28;20043;-75
2023/04/28 00:49:48;;;;;;;14.60;8.23;;;;;;;11.59;77.01;100462.25;4978589;28;20086;-77
2023/04/28 00:52:15;;;;;;;11.48;8.10;;;;;;;11.60;77.02;100463.88;4977522;28;20051;-78
2023/04/28 00:54:42;;;;;;;13.00;7.90;;;;;;;11.66;77.26;100464.19;4978531;28;20217;-77
2023/04/28 00:57:10;;;;;;;16.00;8.65;;;;;;;11.60;77.41;100466.50;4977623;28;20129;-77
2023/04/28 00:59:38;;;;;;;12.73;8.30;;;;;;;11.63;78.02;100463.56;4979182;28;20498;-77
2023/04/28 01:02:06;;;;;;;14.38;8.73;;;;;;;11.69;78.44;100469.94;4978865;28;20055;-77
2023/04/28 01:04:33;;;;;;;10.30;7.80;;;;;;;11.74;78.55;100469.44;4979472;28;20055;-78
2023/04/28 01:07:00;;;;;;;16.35;9.07;;;;;;;11.55;79.37;100460.94;4977896;28;20137;-77
2023/04/28 01:09:27;;;;;;;12.57;8.40;;;;;;;11.58;80.11;100468.47;4981471;28;20042;-77
2023/04/28 01:11:54;;;;;;;13.05;8.85;;;;;;;11.49;80.81;100461.59;4982244;28;20098;-78
2023/04/28 01:14:21;;;;;;;13.07;8.52;;;;;;;11.35;81.92;100466.69;4980653;28;20054;-78
2023/04/28 01:16:49;;;;;;;13.60;9.20;;;;;;;11.45;83.12;100457.66;4981196;28;20050;-78
2023/04/28 01:19:20;;;;;;;13.93;9.02;;;;;;;11.41;83.72;100455.53;4979630;28;20057;-78
2023/04/28 01:21:47;;;;;;;15.48;9.65;;;;;;;11.34;84.40;100458.03;4978944;28;20082;-78
2023/04/28 01:24:15;;;;;;;12.35;9.20;;;;;;;11.31;84.52;100455.75;4978223;28;20065;-78
2023/04/28 01:26:41;;;;;;;13.18;8.85;;;;;;;11.22;84.55;100448.88;4975898;28;20057;-76
2023/04/28 01:29:08;;;;;;;9.77;8.05;;;;;;;11.19;84.95;100459.66;4976220;28;20042;-76
2023/04/28 01:31:35;;;;;;;12.05;9.10;;;;;;;11.28;85.53;100451.66;4975802;28;20106;-77
2023/04/28 01:34:02;;;;;;;16.20;10.27;;;;;;;11.15;85.44;100447.88;4975705;28;20085;-77
2023/04/28 01:36:28;;;;;;;13.77;9.35;;;;;;;11.13;85.99;100447.22;4978778;28;20047;-77
2023/04/28 01:38:55;;;;;;;13.55;9.30;;;;;;;11.12;86.41;100440.34;4979308;28;20101;-77
2023/04/28 01:41:23;;;;;;;16.17;9.68;;;;;;;11.01;86.64;100448.53;4978714;28;20117;-77
2023/04/28 01:43:49;;;;;;;13.15;9.98;;;;;;;11.08;86.91;100442.47;4982104;28;20110;-77
2023/04/28 01:46:16;;;;;;;15.38;10.18;;;;;;;11.21;87.50;100449.84;4983526;28;20102;-77
2023/04/28 01:48:43;;;;;;;13.20;9.57;;;;;;;11.18;87.34;100447.56;4982690;28;20128;-78
2023/04/28 01:51:09;;;;;;;15.93;9.15;;;;;;;11.13;87.36;100447.22;4983843;28;20042;-77
2023/04/28 01:53:36;;;;;;;14.50;10.30;;;;;;;11.05;87.71;100455.06;4983529;28;20114;-77
2023/04/28 01:56:03;;;;;;;11.68;10.07;;;;;;;11.17;89.13;100462.44;4977397;28;20137;-77
2023/04/28 01:58:30;;;;;;;15.23;9.73;;;;;;;11.13;89.29;100463.75;4977402;28;20073;-77
2023/04/28 02:00:58;;;;;;;15.98;10.00;;;;;;;11.14;89.91;100454.09;4977240;28;20133;-77
2023/04/28 02:03:24;;;;;;;13.98;10.43;;;;;;;11.03;89.59;100457.03;4976179;28;20138;-76
2023/04/28 02:05:51;;;;;;;18.52;10.00;;;;;;;11.05;90.38;100460.31;4975473;28;20051;-77
2023/04/28 02:08:18;;;;;;;15.18;9.80;;;;;;;11.00;89.90;100452.13;4975991;28;20085;-77
2023/04/28 02:10:45;;;;;;;17.35;11.07;;;;;;;10.93;90.54;100444.91;4975799;28;20126;-77
2023/04/28 02:13:11;;;;;;;16.58;10.15;;;;;;;10.84;90.98;100455.56;4975551;28;20066;-77
2023/04/28 02:15:41;;;;;;;14.13;10.05;;;;;;;10.87;91.37;100468.34;4975604;28;20047;-77
2023/04/28 02:18:07;;;;;;;14.85;10.90;;;;;;;10.91;91.55;100470.44;4974843;28;20078;-77
2023/04/28 02:20:34;;;;;;;15.20;11.30;;;;;;;10.86;91.93;100453.63;4975104;28;20114;-76
2023/04/28 02:23:01;;;;;;;15.50;11.32;;;;;;;10.80;92.18;100444.59;4975511;28;20078;-77
2023/04/28 02:25:27;;;;;;;13.98;10.48;;;;;;;10.82;93.15;100439.22;4975600;28;20134;-77
2023/04/28 02:27:54;;;;;;;15.98;10.73;;;;;;;10.75;93.36;100433.81;4974630;28;20043;-77
2023/04/28 02:30:20;;;;;;;14.77;11.43;;;;;;;10.70;93.91;100425.63;4975201;28;20710;-77
2023/04/28 02:32:49;;;;;;;14.18;10.45;;;;;;;10.69;93.63;100434.44;4976252;28;20057;-76
2023/04/28 02:35:16;;;;;;;13.45;10.63;;;;;;;10.68;93.21;100431.97;4975655;28;20082;-76
2023/04/28 02:37:42;;;;;;;14.20;9.75;;;;;;;10.71;93.23;100431.66;4975192;28;20105;-76
2023/04/28 02:40:10;;;;;;;17.35;10.98;;;;;;;10.71;92.76;100435.09;4976095;28;20085;-76
2023/04/28 02:42:36;;;;;;;15.95;10.77;;;;;;;10.67;93.34;100423.31;4976288;28;20138;-76
2023/04/28 02:45:03;;;;;;;17.38;11.23;;;;;;;10.71;93.62;100421.19;4976419;28;20134;-76
2023/04/28 02:47:30;;;;;;;17.05;10.75;;;;;;;10.74;93.72;100426.94;4975447;28;20082;-77
2023/04/28 02:49:58;;;;;;;17.40;10.40;;;;;;;10.75;93.62;100420.72;4976793;28;20050;-77
2023/04/28 02:52:24;;;;;;;17.48;10.95;;;;;;;10.77;93.93;100431.84;4977425;28;20479;-77
2023/04/28 02:54:53;;;;;;;19.60;10.80;;;;;;;10.80;94.07;100428.91;4978594;28;20097;-77
2023/04/28 02:57:20;;;;;;;17.98;10.88;;;;;;;10.87;94.44;100434.31;4970945;28;20125;-77
2023/04/28 02:59:46;;;;;;;17.50;11.18;;;;;;;10.81;94.88;100438.38;4976751;28;20106;-77
2023/04/28 03:02:13;;;;;;;14.00;10.45;;;;;;;10.79;94.77;100427.25;4974649;28;20055;-78
2023/04/28 03:04:40;;;;;;;14.32;11.38;;;;;;;10.90;95.21;100440.00;4975223;28;20113;-78
2023/04/28 03:07:08;;;;;;;15.40;10.75;;;;;;;10.91;95.87;100443.44;4974373;28;20047;-78
2023/04/28 03:09:35;;;;;;;17.83;10.35;;;;;;;10.77;95.48;100437.06;4975129;28;20089;-77
2023/04/28 03:12:02;;;;;;;18.75;10.65;;;;;;;10.73;94.62;100422.69;4976525;28;20114;-77
2023/04/28 03:14:28;;;;;;;12.88;9.85;;;;;;;10.75;94.60;100425.94;4975949;28;20498;-77
2023/04/28 03:16:56;;;;;;;14.13;10.27;;;;;;;10.72;94.01;100428.06;4975279;28;20106;-77
2023/04/28 03:19:23;;;;;;;14.52;10.35;;;;;;;10.64;94.39;100411.38;4976019;28;20114;-78
2023/04/28 03:21:49;;;;;;;15.77;11.13;;;;;;;10.62;94.49;100409.91;4974388;28;20081;-77
2023/04/28 03:24:17;;;;;;;15.10;10.43;;;;;;;10.59;94.76;100415.44;4974044;28;20055;-77
2023/04/28 03:26:44;;;;;;;16.67;11.02;;;;;;;10.55;95.18;100420.19;4973316;28;20090;-77
2023/04/28 03:29:11;;;;;;;15.50;10.38;;;;;;;10.53;95.48;100431.78;4974234;28;20043;-77
2023/04/28 03:31:38;;;;;;;13.30;10.80;;;;;;;10.49;95.78;100422.63;4973677;28;20059;-78
2023/04/28 03:34:04;;;;;;;16.25;11.63;;;;;;;10.48;96.55;100426.22;4973648;28;20466;-78
2023/04/28 03:36:31;;;;;;;15.75;11.27;;;;;;;10.51;97.54;100405.78;4973729;28;20082;-78
2023/04/28 03:38:58;;;;;;;20.08;10.88;;;;;;;10.49;98.24;100406.91;4974042;28;20402;-78
2023/04/28 03:41:26;;;;;;;17.17;11.10;;;;;;;10.46;98.61;100402.00;4974411;28;20145;-77
2023/04/28 03:43:55;;;;;;;17.42;12.20;;;;;;;10.34;99.30;100403.31;4974218;28;20081;-76
2023/04/28 03:46:22;;;;;;;19.55;12.30;;;;;;;10.20;99.99;100395.09;4976281;28;20516;-77
2023/04/28 03:48:49;;;;;;;16.15;12.07;;;;;;;10.08;100.00;100383.25;4977670;28;20047;-78
2023/04/28 03:51:16;;;;;;;21.80;12.45;;;;;;;10.00;100.00;100375.38;4969904;28;20083;-78
2023/04/28 03:53:42;;;;;;;17.65;12.30;;;;;;;9.95;100.00;100372.44;4978255;28;20058;-78
2023/04/28 03:56:09;;;;;;;20.50;12.85;;;;;;;9.90;100.00;100352.03;4978108;28;20046;-78
2023/04/28 03:58:37;;;;;;;18.98;13.00;;;;;;;9.90;100.00;100343.38;4978820;28;20110;-78
2023/04/28 04:01:04;;;;;;;19.92;13.20;;;;;;;9.90;100.00;100344.19;4977947;28;20110;-77
2023/04/28 04:03:31;;;;;;;20.50;12.65;;;;;;;9.75;100.00;100342.31;4977960;28;20058;-77
2023/04/28 04:05:58;;;;;;;18.30;12.85;;;;;;;9.71;100.00;100335.75;4977390;28;20481;-77
2023/04/28 04:08:25;;;;;;;21.15;13.23;;;;;;;9.74;100.00;100345.91;4977625;28;20082;-77
2023/04/28 04:10:53;;;;;;;20.92;13.20;;;;;;;9.65;100.00;100345.03;4977783;28;20661;-77
2023/04/28 04:13:20;;;;;;;16.88;13.23;;;;;;;9.65;100.00;100338.03;4979460;28;20065;-77
2023/04/28 04:15:48;;;;;;;21.95;14.13;;;;;;;9.58;100.00;100329.19;4980135;28;20056;-77
2023/04/28 04:18:15;;;;;;;20.70;14.15;;;;;;;9.58;100.00;100336.19;4980527;28;20043;-78
2023/04/28 04:20:42;;;;;;;24.85;13.13;;;;;;;9.59;100.00;100333.44;4979793;28;20055;-77
2023/04/28 04:23:08;;;;;;;18.52;13.07;;;;;;;9.62;100.00;100343.56;4971171;28;20122;-78
2023/04/28 04:25:35;;;;;;;19.52;13.00;;;;;;;9.63;100.00;100326.91;4979608;28;20130;-78
2023/04/28 04:28:02;;;;;;;20.27;12.88;;;;;;;9.67;100.00;100332.66;4977449;28;20047;-78
2023/04/28 04:30:29;;;;;;;19.63;12.68;;;;;;;9.65;100.00;100334.59;4978237;28;20058;-77
2023/04/28 04:32:57;;;;;;;17.60;12.82;;;;;;;9.68;100.00;100336.91;4977829;28;20157;-77
2023/04/28 04:35:23;;;;;;;18.70;12.70;;;;;;;9.70;100.00;100337.56;4977792;28;20137;-78
2023/04/28 04:37:50;;;;;;;18.55;12.88;;;;;;;9.71;100.00;100322.69;4977956;28;20336;-78
2023/04/28 04:40:17;;;;;;;16.17;12.10;;;;;;;9.78;100.00;100323.72;4977056;28;20178;-76
2023/04/28 04:42:43;;;;;;;16.30;12.93;;;;;;;9.73;100.00;100336.44;4977303;28;20129;-78
2023/04/28 04:45:10;;;;;;;15.27;11.95;;;;;;;9.76;100.00;100325.66;4977495;28;20593;-76
2023/04/28 04:47:37;;;;;;;18.55;12.27;;;;;;;9.79;100.00;100341.84;4977173;28;20055;-77
2023/04/28 04:50:07;;;;;;;16.70;12.52;;;;;;;9.76;100.00;100329.09;4979251;28;20051;-77
2023/04/28 04:52:33;;;;;;;18.20;12.57;;;;;;;9.78;100.00;100328.94;4977124;28;20145;-77
2023/04/28 04:55:00;;;;;;;21.50;12.30;;;;;;;9.77;100.00;100330.72;4977516;28;20544;-77
2023/04/28 04:57:26;;;;;;;16.45;11.98;;;;;;;9.77;100.00;100337.75;4976920;28;20133;-77
2023/04/28 04:59:53;;;;;;;15.68;12.00;;;;;;;9.78;100.00;100334.16;4977790;28;20126;-77
2023/04/28 05:02:20;;;;;;;18.95;13.40;;;;;;;9.76;100.00;100351.78;4982490;28;20561;-78
2023/04/28 05:04:47;;;;;;;15.35;12.00;;;;;;;9.77;100.00;100345.59;4980804;28;20089;-78
2023/04/28 05:07:14;;;;;;;14.85;12.13;;;;;;;9.82;100.00;100345.94;4977875;28;20130;-79
2023/04/28 05:09:41;;;;;;;18.27;12.00;;;;;;;9.81;100.00;100344.31;4977840;28;20114;-79
2023/04/28 05:12:08;;;;;;;18.15;12.25;;;;;;;9.87;100.00;100344.50;4976943;28;20129;-78
2023/04/28 05:14:35;;;;;;;15.10;12.02;;;;;;;9.81;100.00;100326.84;4977447;28;20117;-77
2023/04/28 05:17:01;;;;;;;18.88;12.50;;;;;;;9.84;100.00;100330.94;4978535;28;20085;-78
2023/04/28 05:19:28;;;;;;;22.00;12.50;;;;;;;9.88;100.00;100324.41;4979735;28;20070;-78
2023/04/28 05:21:55;;;;;;;18.10;12.55;;;;;;;9.92;100.00;100330.94;4980729;28;20082;-78
2023/04/28 05:24:23;;;;;;;21.73;12.05;;;;;;;9.94;100.00;100321.13;4987665;28;20084;-79
2023/04/28 05:26:50;;;;;;;17.95;12.07;;;;;;;9.96;100.00;100320.00;4984689;28;20050;-78
2023/04/28 05:29:17;;;;;;;17.20;12.38;;;;;;;10.06;100.00;100330.31;4984556;28;20170;-79
2023/04/28 05:31:43;;;;;;;16.67;12.00;;;;;;;10.08;100.00;100330.97;4986063;28;20054;-76
2023/04/28 05:34:10;;;;;;;15.55;12.45;;;;;;;10.12;100.00;100332.28;4985957;28;20188;-78
2023/04/28 05:36:37;;;;;;;17.88;13.18;;;;;;;10.16;100.00;100332.78;4986240;28;20165;-78
2023/04/28 05:39:04;;;;;;;15.98;12.25;;;;;;;10.13;100.00;100328.69;4987123;28;20074;-78
2023/04/28 05:41:32;;;;;;;17.55;12.23;;;;;;;10.17;100.00;100324.78;4985411;28;20143;-78
2023/04/28 05:43:58;;;;;;;16.60;12.55;;;;;;;10.12;100.00;100329.69;4981599;28;20129;-76
2023/04/28 05:46:31;;;;;;;17.70;11.98;;;;;;;10.05;100.00;100312.19;4987147;28;20121;-78
2023/04/28 05:48:58;;;;;;;15.07;11.35;;;;;;;10.09;100.00;100311.69;4978826;28;20069;-78
2023/04/28 05:51:27;;;;;;;15.57;11.50;;;;;;;10.17;100.00;100324.78;4985028;28;20051;-79
2023/04/28 05:53:57;;;;;;;19.98;11.98;;;;;;;10.28;100.00;100316.66;4987286;28;20051;-78
2023/04/28 05:56:23;;;;;;;18.13;11.82;;;;;;;10.36;100.00;100322.91;4986884;28;20078;-78
2023/04/28 05:58:51;;;;;;;16.60;11.52;;;;;;;10.33;100.00;100318.00;4988276;28;20047;-78
2023/04/28 06:01:18;;;;;;;16.95;11.25;;;;;;;10.39;100.00;100314.72;4987362;28;20118;-78
2023/04/28 06:03:45;;;;;;;14.95;10.98;;;;;;;10.41;100.00;100320.59;4989652;28;20051;-79
2023/04/28 06:06:12;;;;;;;17.33;11.52;;;;;;;10.40;100.00;100321.59;4989590;28;20047;-79
2023/04/28 06:08:39;;;;;;;15.43;11.77;;;;;;;10.29;100.00;100313.09;4986901;28;20070;-78
2023/04/28 06:11:09;;;;;;;16.65;11.75;;;;;;;10.32;100.00;100316.34;4978577;28;20051;-78
2023/04/28 06:13:35;;;;;;;15.55;10.90;;;;;;;10.35;100.00;100316.84;4985566;28;20130;-79
2023/04/28 06:16:04;;;;;;;14.98;10.70;;;;;;;10.31;100.00;100315.53;4980324;28;20085;-78
2023/04/28 06:18:31;;;;;;;14.40;12.05;;;;;;;10.30;100.00;100319.13;4979142;28;20082;-77
2023/04/28 06:20:58;;;;;;;17.38;13.13;;;;;;;10.25;100.00;100321.41;4974404;28;20051;-77
2023/04/28 06:23:25;;;;;;;15.02;11.20;;;;;;;10.30;100.00;100337.44;4978479;28;20130;-78
2023/04/28 06:25:51;;;;;;;17.67;12.07;;;;;;;10.35;100.00;100321.25;4978001;28;20138;-78
2023/04/28 06:28:18;;;;;;;18.58;12.70;;;;;;;10.32;100.00;100327.63;4976385;28;20130;-78
2023/04/28 06:30:45;;;;;;;23.25;13.48;;;;;;;10.37;100.00;100327.16;4971835;28;20176;-77
2023/04/28 06:33:13;;;;;;;18.60;11.90;;;;;;;10.61;100.00;100327.16;4975493;28;20065;-78
2023/04/28 06:35:43;;;;;;;18.02;11.48;;;;;;;10.71;100.00;100338.28;4976486;28;20074;-77
2023/04/28 06:38:09;;;;;;;15.50;12.50;;;;;;;10.90;100.00;100347.56;4969359;28;20102;-77
2023/04/28 06:40:36;;;;;;;15.98;11.52;;;;;;;10.91;100.00;100334.31;4975875;28;20054;-77
2023/04/28 06:43:04;;;;;;;14.23;11.90;;;;;;;10.96;100.00;100334.63;4973389;28;20456;-77
2023/04/28 06:45:31;;;;;;;18.35;12.55;;;;;;;10.88;100.00;100329.41;4978955;28;20074;-81
2023/04/28 06:47:57;;;;;;;16.75;10.90;;;;;;;10.95;100.00;100327.78;5007412;23;20053;-75
2023/04/28 06:50:25;;;;;;;17.63;11.82;;;;;;;10.98;100.00;100324.00;4987329;28;20046;-77
2023/04/28 06:52:52;;;;;;;17.52;11.48;;;;;;;11.13;99.98;100322.34;4987101;28;20061;-77
2023/04/28 06:55:19;;;;;;;14.25;11.10;;;;;;;11.19;99.95;100320.88;4995132;28;20173;-77
2023/04/28 06:57:45;;;;;;;17.02;10.90;;;;;;;11.44;99.41;100332.91;4997371;28;20042;-77
2023/04/28 07:00:13;;;;;;;15.18;13.13;;;;;;;11.59;99.27;100341.69;4990917;28;20102;-76
2023/04/28 07:02:40;;;;;;;14.45;11.52;;;;;;;11.35;98.88;100325.22;5011711;28;20042;-76
2023/04/28 07:05:07;;;;;;;15.00;11.40;;;;;;;11.23;99.31;100324.78;5011637;28;20505;-77
2023/04/28 07:07:38;;;;;;;14.52;11.18;;;;;;;11.34;99.92;100334.91;4987416;28;20061;-76
2023/04/28 07:10:05;;;;;;;19.75;17.30;;;;;;;11.34;99.95;100334.91;4987536;28;20508;-77
2023/04/28 07:12:32;;;;;;;18.42;12.25;;;;;;;11.24;99.60;100337.72;4992147;28;20086;-77
2023/04/28 07:14:58;;;;;;;17.42;11.82;;;;;;;11.31;99.84;100335.25;4998505;28;20088;-77
2023/04/28 07:17:25;;;;;;;17.58;11.27;;;;;;;11.29;99.05;100339.84;4984534;28;20433;-77
2023/04/28 07:19:52;;;;;;;14.52;12.20;;;;;;;11.10;99.65;100342.81;4982570;28;20061;-77
2023/04/28 07:22:18;;;;;;;14.82;10.95;;;;;;;11.17;99.50;100351.66;4989088;28;20068;-77
2023/04/28 07:24:46;;;;;;;13.38;11.52;;;;;;;11.32;99.79;100343.94;4986028;28;20479;-77
2023/04/28 07:27:13;;;;;;;21.45;12.35;;;;;;;11.29;99.99;100348.50;4990115;28;20088;-77
2023/04/28 07:29:39;;;;;;;16.13;12.50;;;;;;;11.26;100.00;100342.78;4985788;28;20046;-78
2023/04/28 07:32:07;;;;;;;18.13;11.45;;;;;;;11.44;99.67;100346.00;4986306;28;20117;-77
2023/04/28 07:34:34;;;;;;;15.10;11.48;;;;;;;11.86;98.63;100350.13;4989702;28;20519;-78
2023/04/28 07:37:01;;;;;;;16.63;11.85;;;;;;;12.05;98.03;100339.22;4985615;28;20055;-78
2023/04/28 07:39:28;;;;;;;16.08;11.65;;;;;;;11.79;97.15;100333.47;4984465;28;20588;-78
2023/04/28 07:41:56;;;;;;;13.68;12.20;;;;;;;11.79;97.11;100339.53;4986425;28;20118;-78
2023/04/28 07:44:23;;;;;;;16.50;12.60;;;;;;;11.69;97.12;100348.53;4981505;28;20438;-77
2023/04/28 07:46:50;;;;;;;13.80;11.82;;;;;;;11.63;97.35;100345.63;4980978;28;20508;-77
2023/04/28 07:49:16;;;;;;;23.13;12.10;;;;;;;11.88;97.24;100335.03;4981806;28;20065;-77
2023/04/28 07:51:43;;;;;;;16.08;12.25;;;;;;;12.22;96.60;100326.84;4985922;28;20054;-77
2023/04/28 07:54:10;;;;;;;20.52;12.32;;;;;;;12.79;95.89;100329.00;4987417;28;20042;-78
2023/04/28 07:56:36;;;;;;;15.70;11.82;;;;;;;13.10;93.86;100334.13;4983141;28;20145;-78
2023/04/28 07:59:04;;;;;;;16.67;12.23;;;;;;;13.13;92.24;100336.41;4983182;28;20132;-77
2023/04/28 08:01:31;;;;;;;14.13;11.52;;;;;;;13.48;91.16;100332.28;4984283;28;20063;-77
2023/04/28 08:03:57;;;;;;;15.02;11.00;;;;;;;13.92;89.08;100319.06;4993451;28;20124;-77
2023/04/28 08:06:24;;;;;;;15.00;10.90;;;;;;;13.95;88.23;100321.31;4988594;28;20050;-77
2023/04/28 08:09:00;;;;;;;12.25;11.05;;;;;;;14.07;87.54;100311.97;4982875;28;20500;-78
2023/04/28 08:11:27;;;;;;;17.83;11.90;;;;;;;13.86;86.78;100304.84;4979057;28;20058;-78
2023/04/28 08:13:55;;;;;;;19.83;12.70;;;;;;;13.74;87.51;100308.13;4982246;28;20057;-78
2023/04/28 08:16:23;;;;;;;18.13;12.30;;;;;;;13.54;88.04;100321.03;4983214;28;20059;-78
2023/04/28 08:18:50;;;;;;;14.02;12.15;;;;;;;13.40;88.96;100320.03;4982544;28;20133;-78
2023/04/28 08:21:16;;;;;;;14.95;12.68;;;;;;;13.36;90.35;100318.78;4980755;28;20057;-78
2023/04/28 08:23:43;;;;;;;17.88;12.93;;;;;;;13.40;90.65;100322.66;4983100;28;20069;-78
2023/04/28 08:26:10;;;;;;;19.10;14.05;;;;;;;13.84;91.67;100325.25;4978994;28;20114;-78
2023/04/28 08:28:36;;;;;;;18.00;14.02;;;;;;;13.56;90.89;100305.91;4978011;28;20089;-78
2023/04/28 08:31:04;;;;;;;17.70;13.40;;;;;;;13.80;90.26;100313.47;4986424;28;20475;-78
2023/04/28 08:33:32;;;;;;;18.02;13.77;;;;;;;14.39;90.06;100325.63;4981328;28;20051;-78
2023/04/28 08:35:58;;;;;;;15.00;12.38;;;;;;;14.41;88.17;100315.72;4988402;28;20145;-76
2023/04/28 08:38:26;;;;;;;14.57;13.02;;;;;;;13.88;88.47;100321.25;4987110;28;20054;-78
2023/04/28 08:40:53;;;;;;;17.05;12.57;;;;;;;13.61;89.79;100328.00;4987504;28;20138;-79
2023/04/28 08:43:20;;;;;;;23.73;13.32;;;;;;;13.82;91.03;100334.31;4983940;28;20113;-76
2023/04/28 08:45:47;;;;;;;17.83;13.07;;;;;;;14.06;90.71;100334.00;4987221;28;20128;-76
2023/04/28 08:48:19;;;;;;;16.80;13.88;;;;;;;14.11;90.67;100334.25;4980938;28;20148;-77
2023/04/28 08:50:56;;;;;;;18.00;13.35;;;;;;;13.85;91.12;100329.50;4982903;28;20050;-77
2023/04/28 08:53:25;;;;;;;21.38;14.10;;;;;;;13.62;92.24;100336.72;4986956;28;20093;-78
2023/04/28 08:55:56;;;;;;;18.05;14.20;;;;;;;13.99;93.70;100338.38;4984125;28;20086;-76
2023/04/28 08:58:24;;;;;;;19.45;14.68;;;;;;;14.08;94.61;100347.78;4977596;28;20047;-75
2023/04/28 09:00:51;;;;;;;23.13;15.27;;;;;;;13.95;95.20;100350.25;4981802;28;20058;-76
2023/04/28 09:03:17;;;;;;;19.85;15.93;;;;;;;13.92;96.32;100353.25;4982156;28;20136;-76
2023/04/28 09:05:44;;;;;;;22.63;16.17;;;;;;;13.70;97.53;100360.28;4980458;28;20371;-76
2023/04/28 09:08:12;;;;;;;19.30;16.27;;;;;;;13.63;99.35;100353.31;4982522;28;20132;-76
2023/04/28 09:10:39;;;;;;;21.30;16.48;;;;;;;13.14;100.00;100352.00;4979515;28;20134;-76
2023/04/28 09:13:05;;;;;;;28.25;19.33;;;;;;;13.13;100.00;100354.81;4988989;28;20488;-76
2023/04/28 09:15:36;;;;;;;22.48;19.25;;;;;;;13.17;100.00;100350.84;4984300;28;20579;-76
2023/04/28 09:18:04;;;;;;;28.25;19.17;;;;;;;13.13;100.00;100341.66;4981026;28;20057;-75
2023/04/28 09:20:32;;;;;;;23.35;18.98;;;;;;;12.87;100.00;100344.69;4982236;28;20429;-76
2023/04/28 09:23:16;;;;;;;26.67;19.48;;;;;;;12.88;100.00;100351.56;4988897;28;20133;-76
2023/04/28 09:25:57;;;;;;;29.27;21.13;;;;;;;12.78;100.00;100351.81;4976447;28;20047;-76
2023/04/28 09:28:23;;;;;;;33.03;23.15;;;;;;;12.80;100.00;100347.19;4979379;28;20436;-76
2023/04/28 09:30:50;;;;;;;32.10;23.35;;;;;;;13.08;100.00;100359.78;4979302;28;20153;-76
2023/04/28 09:33:17;;;;;;;28.23;22.90;;;;;;;13.10;100.00;100357.78;4978161;28;20133;-77
2023/04/28 09:35:46;;;;;;;30.67;22.88;;;;;;;13.19;100.00;100365.44;4979016;28;20058;-77
2023/04/28 09:38:14;;;;;;;28.52;22.83;;;;;;;13.13;100.00;100362.69;4993856;28;20440;-77
2023/04/28 09:40:52;;;;;;;27.27;22.27;;;;;;;13.19;100.00;100364.63;4980336;28;20114;-76
2023/04/28 09:43:24;;;;;;;32.78;22.40;;;;;;;13.29;100.00;100359.91;4980127;28;20166;-77
2023/04/28 09:45:51;;;;;;;29.60;22.75;;;;;;;13.15;100.00;100360.69;4978473;28;20046;-76
2023/04/28 09:48:17;;;;;;;30.17;22.70;;;;;;;13.35;100.00;100369.69;4980515;28;20050;-76
2023/04/28 09:50:45;;;;;;;27.20;22.05;;;;;;;13.20;100.00;100366.25;4978457;28;20078;-77
2023/04/28 09:53:12;;;;;;;28.67;22.55;;;;;;;13.34;100.00;100365.44;4981060;28;20054;-77
2023/04/28 09:55:44;;;;;;;29.08;21.55;;;;;;;13.60;100.00;100368.44;4989611;28;20057;-77
2023/04/28 09:58:14;;;;;;;24.65;20.95;;;;;;;13.63;100.00;100361.19;4978475;28;20084;-77
2023/04/28 10:00:41;;;;;;;26.77;20.88;;;;;;;13.56;100.00;100361.91;4983337;28;20058;-77
2023/04/28 10:03:11;;;;;;;24.48;20.17;;;;;;;13.45;100.00;100364.19;4983144;28;20086;-78
2023/04/28 10:05:38;;;;;;;24.73;19.70;;;;;;;13.67;100.00;100368.53;4995532;28;20548;-76
2023/04/28 10:08:05;;;;;;;24.17;19.77;;;;;;;13.57;100.00;100362.72;4995261;28;20079;-76
2023/04/28 10:10:33;;;;;;;22.25;19.85;;;;;;;13.83;100.00;100356.97;4988923;28;20047;-77
2023/04/28 10:13:01;;;;;;;24.00;19.98;;;;;;;13.96;100.00;100362.41;4988208;28;20122;-77
2023/04/28 10:15:28;;;;;;;24.75;19.35;;;;;;;13.90;100.00;100350.81;4979825;28;20424;-77
2023/04/28 10:17:55;;;;;;;22.65;18.77;;;;;;;14.17;100.00;100353.75;4980538;28;20078;-77
2023/04/28 10:20:24;;;;;;;20.73;17.27;;;;;;;13.69;100.00;100342.88;4983443;28;20050;-77
2023/04/28 10:23:01;;;;;;;20.45;17.90;;;;;;;13.84;100.00;100343.66;4976037;28;20426;-77
2023/04/28 10:25:30;;;;;;;21.38;16.70;;;;;;;13.88;100.00;100346.72;4977872;28;20133;-77
2023/04/28 10:27:58;;;;;;;18.88;16.80;;;;;;;13.86;100.00;100346.91;4976702;28;20051;-77
2023/04/28 10:30:28;;;;;;;24.98;17.92;;;;;;;13.83;100.00;100341.22;4982690;28;20484;-77
2023/04/28 10:33:25;;;;;;;20.95;16.95;;;;;;;14.07;100.00;100348.78;4976588;28;20425;-77
2023/04/28 10:35:52;;;;;;;19.38;15.90;;;;;;;14.23;100.00;100353.81;4977655;28;20053;-77
2023/04/28 10:38:20;;;;;;;18.65;15.20;;;;;;;14.40;100.00;100348.31;4984521;28;20073;-77
2023/04/28 10:40:48;;;;;;;16.60;14.57;;;;;;;14.51;100.00;100343.41;4975605;28;20085;-76
2023/04/28 10:43:32;;;;;;;17.23;14.65;;;;;;;14.59;100.00;100348.53;4978938;28;20038;-77
2023/04/28 10:46:07;;;;;;;19.50;16.27;;;;;;;14.77;100.00;100345.44;4985962;28;20050;-78
2023/04/28 10:49:00;;;;;;;16.23;14.07;;;;;;;15.15;100.00;100337.19;4975551;28;20055;-77
2023/04/28 10:51:32;;;;;;;16.70;13.55;;;;;;;15.41;100.00;100345.28;4978877;28;20436;-78
2023/04/28 10:54:15;;;;;;;16.38;13.77;;;;;;;15.75;100.00;100333.91;4979018;28;20174;-77
2023/04/28 10:57:20;;;;;;;16.38;13.55;;;;;;;16.14;100.00;100341.13;4972414;28;20081;-78
2023/04/28 10:59:47;;;;;;;14.68;12.40;;;;;;;16.10;100.00;100333.81;4972713;28;20078;-77
2023/04/28 11:02:38;;;;;;;15.30;12.52;;;;;;;16.30;100.00;100333.88;4973028;28;20054;-77
2023/04/28 11:05:17;;;;;;;13.40;11.50;;;;;;;16.60;99.84;100329.81;4974642;28;20054;-77
2023/04/28 11:08:30;;;;;;;11.88;10.63;;;;;;;17.19;98.04;100331.66;4979777;28;20051;-78
2023/04/28 11:11:24;;;;;;;10.52;9.38;;;;;;;17.30;96.18;100322.28;4981526;28;20095;-78
2023/04/28 11:13:53;;;;;;;9.85;8.75;;;;;;;17.42;95.30;100315.34;4964713;28;20057;-78